createdAt,value
2022-10-01T00:01:11.126Z,7.70
2022-10-01T00:03:38.284Z,6.40
2022-10-01T00:06:13.398Z,4.38
2022-10-01T00:08:41.316Z,3.88
2022-10-01T00:11:13.117Z,5.97
2022-10-01T00:13:40.612Z,3.58
2022-10-01T00:16:08.747Z,5.60
2022-10-01T00:18:39.852Z,4.47
2022-10-01T00:21:12.724Z,8.27
2022-10-01T00:23:39.723Z,7.93
2022-10-01T00:26:20.951Z,7.90
2022-10-01T00:28:50.027Z,6.43
2022-10-01T00:31:16.902Z,7.47
2022-10-01T00:33:43.769Z,8.43
2022-10-01T00:36:10.927Z,6.05
2022-10-01T00:38:38.288Z,6.28
2022-10-01T00:41:05.314Z,7.00
2022-10-01T00:43:34.451Z,6.38
2022-10-01T00:46:15.389Z,7.63
2022-10-01T00:48:50.689Z,6.38
2022-10-01T00:51:17.507Z,5.38
2022-10-01T00:53:44.803Z,6.00
2022-10-01T00:56:11.653Z,5.40
2022-10-01T00:58:39.389Z,7.80
2022-10-01T01:01:06.370Z,9.52
2022-10-01T01:03:33.194Z,6.70
2022-10-01T01:06:00.222Z,7.25
2022-10-01T01:08:27.063Z,8.02
2022-10-01T01:11:05.090Z,6.93
2022-10-01T01:13:40.736Z,7.85
2022-10-01T01:16:12.846Z,7.47
2022-10-01T01:19:00.730Z,8.00
2022-10-01T01:21:42.531Z,7.72
2022-10-01T01:24:14.461Z,10.07
2022-10-01T01:26:44.231Z,7.45
2022-10-01T01:29:21.697Z,13.82
2022-10-01T01:31:48.722Z,8.82
2022-10-01T01:34:24.264Z,7.70
2022-10-01T01:36:55.163Z,8.23
2022-10-01T01:39:21.991Z,8.55
2022-10-01T01:41:51.308Z,5.45
2022-10-01T01:44:22.110Z,7.05
2022-10-01T01:46:49.451Z,5.43
2022-10-01T01:49:17.734Z,6.32
2022-10-01T01:52:04.471Z,8.35
2022-10-01T01:54:31.537Z,6.05
2022-10-01T01:56:58.525Z,11.10
2022-10-01T01:59:26.622Z,11.73
2022-10-01T02:01:53.675Z,6.78
2022-10-01T02:04:20.586Z,6.15
2022-10-01T02:06:55.998Z,7.07
2022-10-01T02:10:05.755Z,9.30
2022-10-01T02:12:57.174Z,9.90
2022-10-01T02:15:41.987Z,9.82
2022-10-01T02:18:08.854Z,9.52
2022-10-01T02:20:42.228Z,5.78
2022-10-01T02:23:11.565Z,8.80
2022-10-01T02:25:42.768Z,11.43
2022-10-01T02:28:15.708Z,8.38
2022-10-01T02:30:44.614Z,7.75
2022-10-01T02:33:13.911Z,9.18
2022-10-01T02:35:41.343Z,8.27
2022-10-01T02:38:08.806Z,6.47
2022-10-01T02:40:37.808Z,8.85
2022-10-01T02:43:14.245Z,10.13
2022-10-01T02:45:41.201Z,12.48
2022-10-01T02:48:09.974Z,6.72
2022-10-01T02:51:07.013Z,6.88
2022-10-01T02:53:40.768Z,6.95
2022-10-01T02:56:07.615Z,7.78
2022-10-01T02:58:36.312Z,11.57
2022-10-01T03:01:03.676Z,12.77
2022-10-01T03:03:32.444Z,14.45
2022-10-01T03:05:59.252Z,12.75
2022-10-01T03:08:25.995Z,7.35
2022-10-01T03:10:52.838Z,9.85
2022-10-01T03:13:19.813Z,10.48
2022-10-01T03:15:47.079Z,11.25
2022-10-01T03:18:13.933Z,10.73
2022-10-01T03:20:40.730Z,11.88
2022-10-01T03:23:07.523Z,7.78
2022-10-01T03:25:34.314Z,12.93
2022-10-01T03:28:01.357Z,14.02
2022-10-01T03:30:28.426Z,10.98
2022-10-01T03:32:55.227Z,14.23
2022-10-01T03:35:22.872Z,12.27
2022-10-01T03:37:49.742Z,11.95
2022-10-01T03:40:16.528Z,14.15
2022-10-01T03:42:43.315Z,9.23
2022-10-01T03:45:10.202Z,10.05
2022-10-01T03:47:37.063Z,14.73
2022-10-01T03:50:04.109Z,11.93
2022-10-01T03:52:30.905Z,14.75
2022-10-01T03:54:57.700Z,10.80
2022-10-01T03:57:24.455Z,11.32
2022-10-01T03:59:51.257Z,11.23
2022-10-01T04:02:18.157Z,9.13
2022-10-01T04:04:45.132Z,10.70
2022-10-01T04:07:11.921Z,9.45
2022-10-01T04:09:38.739Z,11.52
2022-10-01T04:12:05.955Z,11.88
2022-10-01T04:14:32.707Z,10.15
2022-10-01T04:17:00.413Z,8.93
2022-10-01T04:19:27.268Z,7.38
2022-10-01T04:21:54.112Z,8.88
2022-10-01T04:24:20.908Z,13.80
2022-10-01T04:26:47.745Z,16.52
2022-10-01T04:29:14.636Z,13.32
2022-10-01T04:31:41.533Z,12.40
2022-10-01T04:34:08.357Z,8.90
2022-10-01T04:36:35.135Z,9.77
2022-10-01T04:39:02.950Z,13.88
2022-10-01T04:41:31.282Z,8.10
2022-10-01T04:43:59.715Z,14.52
2022-10-01T04:46:27.759Z,10.55
2022-10-01T04:48:54.657Z,8.90
2022-10-01T04:51:21.435Z,10.98
2022-10-01T04:53:48.295Z,14.55
2022-10-01T04:56:15.132Z,11.85
2022-10-01T04:58:41.912Z,12.70
2022-10-01T05:01:08.839Z,11.15
2022-10-01T05:03:35.681Z,8.98
2022-10-01T05:06:02.437Z,14.63
2022-10-01T05:08:29.629Z,15.88
2022-10-01T05:10:58.604Z,12.23
2022-10-01T05:13:31.842Z,16.10
2022-10-01T05:15:59.132Z,11.95
2022-10-01T05:18:26.149Z,9.07
2022-10-01T05:20:52.916Z,11.23
2022-10-01T05:23:19.774Z,9.73
2022-10-01T05:25:47.113Z,13.43
2022-10-01T05:28:17.214Z,9.70
2022-10-01T05:30:48.110Z,8.73
2022-10-01T05:33:15.073Z,10.73
2022-10-01T05:35:41.911Z,11.32
2022-10-01T05:38:08.741Z,15.65
2022-10-01T05:40:35.553Z,10.82
2022-10-01T05:43:04.476Z,11.15
2022-10-01T05:45:31.633Z,14.80
2022-10-01T05:48:03.178Z,10.02
2022-10-01T05:50:33.761Z,12.68
2022-10-01T05:53:01.151Z,13.55
2022-10-01T05:55:31.884Z,13.25
2022-10-01T05:58:00.239Z,21.77
2022-10-01T06:00:30.242Z,11.00
2022-10-01T06:02:58.203Z,15.40
2022-10-01T06:05:25.236Z,11.75
2022-10-01T06:07:53.539Z,15.57
2022-10-01T06:10:21.112Z,13.13
2022-10-01T06:12:48.533Z,16.52
2022-10-01T06:15:15.611Z,10.68
2022-10-01T06:17:45.353Z,10.27
2022-10-01T06:20:13.380Z,10.20
2022-10-01T06:22:41.031Z,11.38
2022-10-01T06:25:08.229Z,16.48
2022-10-01T06:27:35.112Z,10.43
2022-10-01T06:30:02.198Z,12.88
2022-10-01T06:32:34.088Z,14.15
2022-10-01T06:35:01.961Z,10.53
2022-10-01T06:37:28.848Z,13.07
2022-10-01T06:39:55.708Z,9.85
2022-10-01T06:42:22.560Z,11.77
2022-10-01T06:44:49.364Z,13.48
2022-10-01T06:47:16.252Z,16.52
2022-10-01T06:49:47.327Z,21.20
2022-10-01T06:52:33.490Z,14.32
2022-10-01T06:55:01.478Z,11.90
2022-10-01T06:57:28.754Z,16.33
2022-10-01T06:59:55.962Z,7.72
2022-10-01T07:02:28.674Z,13.20
2022-10-01T07:04:59.367Z,8.75
2022-10-01T07:07:31.046Z,16.55
2022-10-01T07:09:58.882Z,12.98
2022-10-01T07:12:26.048Z,7.95
2022-10-01T07:14:53.225Z,11.82
2022-10-01T07:17:20.708Z,12.00
2022-10-01T07:19:47.541Z,16.27
2022-10-01T07:22:14.365Z,14.30
2022-10-01T07:24:41.309Z,9.00
2022-10-01T07:27:08.197Z,13.40
2022-10-01T07:29:35.035Z,10.10
2022-10-01T07:32:02.159Z,15.05
2022-10-01T07:34:31.074Z,11.95
2022-10-01T07:36:57.958Z,17.83
2022-10-01T07:39:24.836Z,13.93
2022-10-01T07:41:51.889Z,15.07
2022-10-01T07:44:19.803Z,11.38
2022-10-01T07:46:47.209Z,12.93
2022-10-01T07:49:15.071Z,11.07
2022-10-01T07:51:43.937Z,14.77
2022-10-01T07:54:10.845Z,13.20
2022-10-01T07:56:37.931Z,10.85
2022-10-01T07:59:04.865Z,10.63
2022-10-01T08:01:32.546Z,11.40
2022-10-01T08:03:59.780Z,12.32
2022-10-01T08:06:26.936Z,11.15
2022-10-01T08:08:53.724Z,8.20
2022-10-01T08:11:24.680Z,8.57
2022-10-01T08:13:51.549Z,13.13
2022-10-01T08:16:18.721Z,9.05
2022-10-01T08:18:45.781Z,8.95
2022-10-01T08:21:14.204Z,10.07
2022-10-01T08:23:41.177Z,8.55
2022-10-01T08:26:08.542Z,10.07
2022-10-01T08:28:35.607Z,6.47
2022-10-01T08:31:07.538Z,14.15
2022-10-01T08:33:35.161Z,11.73
2022-10-01T08:36:02.905Z,12.07
2022-10-01T08:38:29.778Z,10.20
2022-10-01T08:40:56.637Z,7.90
2022-10-01T08:43:34.291Z,9.10
2022-10-01T08:46:15.044Z,7.15
2022-10-01T08:48:47.970Z,7.45
2022-10-01T08:51:33.284Z,7.82
2022-10-01T08:54:04.651Z,11.07
2022-10-01T08:56:34.187Z,8.85
2022-10-01T08:59:04.857Z,8.70
2022-10-01T09:01:32.037Z,11.20
2022-10-01T09:03:59.519Z,7.75
2022-10-01T09:06:26.808Z,8.98
2022-10-01T09:09:09.001Z,4.93
2022-10-01T09:12:01.122Z,7.35
2022-10-01T09:15:00.276Z,7.55
2022-10-01T09:17:53.892Z,4.35
2022-10-01T09:20:25.462Z,6.40
2022-10-01T09:23:15.355Z,7.40
2022-10-01T09:25:42.520Z,3.78
2022-10-01T09:28:15.470Z,4.93
2022-10-01T09:30:46.195Z,5.90
2022-10-01T09:33:22.789Z,7.10
2022-10-01T09:36:03.153Z,8.18
2022-10-01T09:38:42.702Z,4.57
2022-10-01T09:41:10.618Z,9.75
2022-10-01T09:43:38.937Z,7.25
2022-10-01T09:46:13.308Z,7.55
2022-10-01T09:48:56.886Z,5.22
2022-10-01T09:51:34.831Z,4.50
2022-10-01T09:54:22.489Z,4.97
2022-10-01T09:57:17.082Z,6.13
2022-10-01T10:00:11.690Z,7.20
2022-10-01T10:02:48.484Z,5.90
2022-10-01T10:05:20.659Z,6.85
2022-10-01T10:08:14.590Z,8.05
2022-10-01T10:13:48.715Z,5.40
2022-10-01T10:16:16.657Z,8.13
2022-10-01T10:18:48.694Z,7.07
2022-10-01T10:21:16.632Z,8.18
2022-10-01T10:24:03.937Z,3.33
2022-10-01T10:26:36.174Z,5.13
2022-10-01T10:29:03.398Z,8.70
2022-10-01T10:31:42.593Z,4.50
2022-10-01T10:34:21.942Z,6.72
2022-10-01T10:36:48.762Z,9.55
2022-10-01T10:39:36.656Z,2.65
2022-10-01T10:42:04.105Z,3.60
2022-10-01T10:44:39.561Z,7.32
2022-10-01T10:47:16.738Z,5.90
2022-10-01T10:49:46.319Z,5.05
2022-10-01T10:52:36.834Z,5.93
2022-10-01T10:55:26.943Z,7.25
2022-10-01T10:57:57.478Z,6.10
2022-10-01T11:00:25.752Z,4.43
2022-10-01T11:03:01.742Z,10.30
2022-10-01T11:05:31.965Z,7.00
2022-10-01T11:08:00.929Z,4.10
2022-10-01T11:11:02.665Z,5.63
2022-10-01T11:13:41.322Z,3.70
2022-10-01T11:16:20.469Z,5.63
2022-10-01T11:19:01.345Z,7.28
2022-10-01T11:21:37.193Z,9.30
2022-10-01T11:24:15.942Z,7.63
2022-10-01T11:26:57.878Z,6.28
2022-10-01T11:29:51.460Z,6.20
2022-10-01T11:32:24.268Z,6.18
2022-10-01T11:35:28.534Z,5.93
2022-10-01T11:37:57.356Z,4.47
2022-10-01T11:40:35.967Z,7.82
2022-10-01T11:43:12.962Z,4.30
2022-10-01T11:45:45.908Z,7.38
2022-10-01T11:48:52.339Z,8.27
2022-10-01T11:51:25.385Z,4.32
2022-10-01T11:53:55.958Z,5.72
2022-10-01T11:56:46.087Z,6.88
2022-10-01T11:59:29.569Z,4.53
2022-10-01T12:02:15.421Z,6.85
2022-10-01T12:04:50.101Z,6.25
2022-10-01T12:07:44.014Z,6.85
2022-10-01T12:10:37.256Z,5.22
2022-10-01T12:13:16.646Z,7.57
2022-10-01T12:15:51.925Z,6.88
2022-10-01T12:18:23.119Z,7.63
2022-10-01T12:20:53.969Z,4.30
2022-10-01T12:23:22.928Z,6.07
2022-10-01T12:26:35.161Z,7.70
2022-10-01T12:29:17.133Z,7.30
2022-10-01T12:31:51.041Z,3.80
2022-10-01T12:34:45.870Z,7.55
2022-10-01T12:37:58.394Z,4.53
2022-10-01T12:40:53.908Z,12.90
2022-10-01T12:43:37.232Z,6.30
2022-10-01T12:46:12.955Z,5.13
2022-10-01T12:49:11.178Z,4.20
2022-10-01T12:51:52.987Z,4.90
2022-10-01T12:54:30.973Z,11.27
2022-10-01T12:57:17.277Z,5.97
2022-10-01T12:59:59.275Z,5.28
2022-10-01T13:02:49.338Z,4.93
2022-10-01T13:05:20.194Z,4.53
2022-10-01T13:07:53.003Z,4.78
2022-10-01T13:10:43.527Z,4.82
2022-10-01T13:13:27.335Z,3.33
2022-10-01T13:16:15.514Z,4.72
2022-10-01T13:18:57.636Z,5.97
2022-10-01T13:21:32.370Z,7.40
2022-10-01T13:24:09.746Z,4.70
2022-10-01T13:26:58.396Z,6.22
2022-10-01T13:29:25.472Z,6.18
2022-10-01T13:31:57.343Z,6.82
2022-10-01T13:34:26.217Z,7.38
2022-10-01T13:36:53.266Z,3.85
2022-10-01T13:39:22.253Z,5.22
2022-10-01T13:41:50.578Z,6.28
2022-10-01T13:44:27.750Z,4.10
2022-10-01T13:47:06.074Z,5.05
2022-10-01T13:49:34.220Z,6.18
2022-10-01T13:52:02.952Z,3.05
2022-10-01T13:54:47.391Z,2.80
2022-10-01T13:57:25.968Z,3.42
2022-10-01T14:00:23.130Z,5.68
2022-10-01T14:03:06.531Z,5.00
2022-10-01T14:05:42.867Z,7.20
2022-10-01T14:08:16.812Z,4.32
2022-10-01T14:11:15.339Z,3.78
2022-10-01T14:14:06.033Z,2.85
2022-10-01T14:16:45.473Z,3.95
2022-10-01T14:19:19.891Z,4.38
2022-10-01T14:22:12.076Z,5.32
2022-10-01T14:24:45.179Z,4.10
2022-10-01T14:27:36.407Z,7.53
2022-10-01T14:30:06.822Z,6.85
2022-10-01T14:32:52.557Z,6.63
2022-10-01T14:35:20.665Z,4.00
2022-10-01T14:37:47.529Z,5.03
2022-10-01T14:40:17.805Z,4.55
2022-10-01T14:42:45.104Z,3.92
2022-10-01T14:45:18.986Z,9.25
2022-10-01T14:47:48.794Z,5.78
2022-10-01T14:50:20.323Z,5.97
2022-10-01T14:52:48.804Z,7.28
2022-10-01T14:55:15.727Z,2.92
2022-10-01T14:57:49.347Z,6.03
2022-10-01T15:00:20.803Z,2.63
2022-10-01T15:02:52.291Z,7.32
2022-10-01T15:05:30.311Z,5.90
2022-10-01T15:07:57.185Z,5.93
2022-10-01T15:10:27.391Z,4.60
2022-10-01T15:12:55.036Z,3.83
2022-10-01T15:15:24.773Z,5.53
2022-10-01T15:17:51.607Z,3.97
2022-10-01T15:20:18.506Z,4.18
2022-10-01T15:22:46.446Z,5.43
2022-10-01T15:25:27.007Z,3.92
2022-10-01T15:27:54.348Z,4.25
2022-10-01T15:30:21.990Z,5.20
2022-10-01T15:32:48.858Z,6.00
2022-10-01T15:35:19.391Z,5.78
2022-10-01T15:37:50.108Z,4.70
2022-10-01T15:40:21.484Z,4.47
2022-10-01T15:43:06.884Z,5.20
2022-10-01T15:45:34.292Z,5.00
2022-10-01T15:48:01.285Z,3.08
2022-10-01T15:50:32.683Z,5.38
2022-10-01T15:53:06.346Z,5.63
2022-10-01T15:55:42.224Z,4.95
2022-10-01T15:58:26.989Z,3.10
2022-10-01T16:01:06.735Z,4.03
2022-10-01T16:03:41.940Z,3.78
2022-10-01T16:06:29.287Z,4.43
2022-10-01T16:09:00.836Z,3.97
2022-10-01T16:11:32.113Z,3.78
2022-10-01T16:14:22.483Z,5.07
2022-10-01T16:16:50.747Z,4.53
2022-10-01T16:19:30.920Z,3.58
2022-10-01T16:22:22.784Z,5.18
2022-10-01T16:24:54.962Z,3.42
2022-10-01T16:27:24.057Z,3.72
2022-10-01T16:30:06.943Z,3.03
2022-10-01T16:32:33.927Z,1.67
2022-10-01T16:35:23.876Z,3.67
2022-10-01T16:37:51.961Z,5.60
2022-10-01T16:40:19.547Z,3.42
2022-10-01T16:42:46.420Z,3.42
2022-10-01T16:45:22.533Z,4.13
2022-10-01T16:47:49.411Z,3.60
2022-10-01T16:50:17.743Z,3.78
2022-10-01T16:52:44.583Z,4.40
2022-10-01T16:55:22.554Z,5.22
2022-10-01T16:57:50.115Z,4.90
2022-10-01T17:00:18.246Z,4.97
2022-10-01T17:02:45.255Z,4.78
2022-10-01T17:05:26.361Z,4.72
2022-10-01T17:07:54.067Z,6.22
2022-10-01T17:10:25.024Z,6.05
2022-10-01T17:12:51.872Z,5.50
2022-10-01T17:15:23.209Z,7.32
2022-10-01T17:17:50.142Z,8.40
2022-10-01T17:20:17.077Z,3.85
2022-10-01T17:22:43.997Z,5.75
2022-10-01T17:25:17.833Z,5.63
2022-10-01T17:27:44.833Z,6.80
2022-10-01T17:30:12.060Z,5.47
2022-10-01T17:32:40.202Z,5.97
2022-10-01T17:35:07.714Z,6.43
2022-10-01T17:37:34.750Z,5.50
2022-10-01T17:40:01.871Z,3.63
2022-10-01T17:42:28.931Z,9.27
2022-10-01T17:44:55.778Z,5.35
2022-10-01T17:47:22.732Z,5.47
2022-10-01T17:49:49.564Z,6.63
2022-10-01T17:52:16.675Z,6.00
2022-10-01T17:54:43.517Z,13.57
2022-10-01T17:57:10.888Z,6.43
2022-10-01T17:59:38.293Z,5.10
2022-10-01T18:02:29.614Z,6.18
2022-10-01T18:04:55.407Z,3.08
2022-10-01T18:07:22.381Z,7.40
2022-10-01T18:09:49.313Z,6.80
2022-10-01T18:12:16.179Z,5.68
2022-10-01T18:14:43.229Z,4.93
2022-10-01T18:17:10.160Z,6.50
2022-10-01T18:19:53.668Z,4.63
2022-10-01T18:24:47.777Z,6.10
2022-10-01T18:27:14.926Z,5.93
2022-10-01T18:29:41.717Z,5.93
2022-10-01T18:32:17.769Z,5.35
2022-10-01T18:34:52.964Z,5.32
2022-10-01T18:37:30.796Z,5.18
2022-10-01T18:40:03.878Z,3.65
2022-10-01T18:42:54.704Z,3.95
2022-10-01T18:45:44.797Z,6.78
2022-10-01T18:48:38.479Z,6.38
2022-10-01T18:51:15.077Z,4.93
2022-10-01T18:53:52.026Z,8.95
2022-10-01T18:56:36.590Z,4.60
2022-10-01T18:59:33.279Z,3.83
2022-10-01T19:02:27.424Z,6.35
2022-10-01T19:05:29.554Z,5.63
2022-10-01T19:08:08.602Z,7.05
2022-10-01T19:10:52.795Z,5.70
2022-10-01T19:13:24.658Z,5.60
2022-10-01T19:16:05.961Z,4.85
2022-10-01T19:18:44.916Z,3.90
2022-10-01T19:21:18.875Z,5.30
2022-10-01T19:24:04.285Z,6.00
2022-10-01T19:26:57.994Z,5.60
2022-10-01T19:29:31.516Z,7.53
2022-10-01T19:34:57.851Z,9.23
2022-10-01T19:37:33.813Z,6.03
2022-10-01T19:40:05.170Z,7.70
2022-10-01T19:42:35.359Z,4.82
2022-10-01T19:45:12.032Z,5.47
2022-10-01T19:47:40.404Z,5.05
2022-10-01T19:50:24.125Z,8.73
2022-10-01T19:55:20.287Z,4.63
2022-10-01T19:57:47.340Z,7.45
2022-10-01T20:00:20.013Z,8.02
2022-10-01T20:03:13.186Z,6.90
2022-10-01T20:05:58.465Z,8.37
2022-10-01T20:08:36.253Z,8.13
2022-10-01T20:11:06.415Z,4.15
2022-10-01T20:13:36.792Z,8.20
2022-10-01T20:16:22.437Z,6.38
2022-10-01T20:18:57.818Z,5.95
2022-10-01T20:21:38.508Z,7.75
2022-10-01T20:24:43.361Z,5.53
2022-10-01T20:27:16.450Z,3.00
2022-10-01T20:30:04.917Z,6.90
2022-10-01T20:32:52.577Z,7.28
2022-10-01T20:35:22.978Z,6.38
2022-10-01T20:38:43.888Z,7.60
2022-10-01T20:41:14.951Z,5.57
2022-10-01T20:43:55.919Z,4.75
2022-10-01T20:46:40.968Z,12.07
2022-10-01T20:49:32.970Z,3.15
2022-10-01T20:52:37.830Z,9.82
2022-10-01T20:55:29.117Z,6.07
2022-10-01T20:58:02.317Z,5.38
2022-10-01T21:00:31.047Z,4.45
2022-10-01T21:03:19.241Z,7.82
2022-10-01T21:05:53.590Z,4.95
2022-10-01T21:08:41.098Z,2.85
2022-10-01T21:11:14.587Z,6.57
2022-10-01T21:16:37.284Z,2.95
2022-10-01T21:19:38.922Z,5.65
2022-10-01T21:22:24.897Z,4.40
2022-10-01T21:25:28.586Z,6.97
2022-10-01T21:28:04.067Z,3.00
2022-10-01T21:30:49.738Z,3.42
2022-10-01T21:33:25.033Z,5.80
2022-10-01T21:35:53.112Z,7.22
2022-10-01T21:38:32.466Z,5.00
2022-10-01T21:41:26.105Z,3.00
2022-10-01T21:44:15.676Z,5.68
2022-10-01T21:46:50.250Z,5.35
2022-10-01T21:49:24.601Z,4.78
2022-10-01T21:51:55.501Z,5.05
2022-10-01T21:54:44.971Z,4.93
2022-10-01T21:57:36.761Z,3.58
2022-10-01T22:00:26.207Z,3.72
2022-10-01T22:03:14.014Z,5.60
2022-10-01T22:06:11.814Z,5.47
2022-10-01T22:08:55.094Z,5.78
2022-10-01T22:12:03.128Z,3.78
2022-10-01T22:14:31.123Z,4.38
2022-10-01T22:17:01.303Z,5.85
2022-10-01T22:19:34.695Z,7.90
2022-10-01T22:24:39.432Z,4.70
2022-10-01T22:27:15.998Z,6.60
2022-10-01T22:29:46.504Z,9.07
2022-10-01T22:32:13.946Z,8.70
2022-10-01T22:34:52.517Z,7.28
2022-10-01T22:37:44.129Z,4.60
2022-10-01T22:40:21.484Z,8.13
2022-10-01T22:42:55.406Z,6.10
2022-10-01T22:45:22.234Z,5.90
2022-10-01T22:47:56.025Z,7.53
2022-10-01T22:50:32.090Z,5.22
2022-10-01T22:53:08.825Z,3.70
2022-10-01T22:55:47.842Z,8.40
2022-10-01T22:58:35.372Z,8.77
2022-10-01T23:01:21.008Z,5.55
2022-10-01T23:03:55.658Z,6.15
2022-10-01T23:06:35.994Z,4.70
2022-10-01T23:09:08.790Z,9.43
2022-10-01T23:11:54.145Z,6.68
2022-10-01T23:14:30.120Z,8.43
2022-10-01T23:17:04.702Z,9.40
2022-10-01T23:19:37.388Z,8.23
2022-10-01T23:22:07.506Z,4.50
2022-10-01T23:25:02.795Z,8.25
2022-10-01T23:27:32.479Z,10.98
2022-10-01T23:30:04.509Z,7.88
2022-10-01T23:32:46.777Z,4.22
2022-10-01T23:35:14.632Z,11.60
2022-10-01T23:37:58.033Z,5.25
2022-10-01T23:40:31.057Z,7.07
2022-10-01T23:43:16.478Z,8.10
2022-10-01T23:45:46.618Z,9.10
2022-10-01T23:48:37.086Z,8.20
2022-10-01T23:51:14.023Z,6.50
2022-10-01T23:54:07.263Z,7.10
2022-10-01T23:56:48.572Z,5.43
2022-10-01T23:59:28.499Z,4.60
